createdAt,value
2022-10-13T00:00:43.371Z,14.60
2022-10-13T00:03:10.788Z,13.90
2022-10-13T00:05:42.229Z,13.57
2022-10-13T00:08:09.775Z,14.82
2022-10-13T00:10:42.492Z,14.25
2022-10-13T00:13:12.138Z,14.32
2022-10-13T00:15:40.049Z,15.38
2022-10-13T00:18:07.550Z,15.53
2022-10-13T00:20:35.272Z,16.08
2022-10-13T00:23:02.529Z,14.82
2022-10-13T00:25:29.823Z,14.57
2022-10-13T00:27:57.113Z,15.40
2022-10-13T00:30:36.552Z,15.03
2022-10-13T00:33:03.893Z,16.00
2022-10-13T00:35:31.105Z,16.58
2022-10-13T00:37:58.476Z,15.88
2022-10-13T00:40:30.357Z,15.27
2022-10-13T00:42:57.647Z,15.33
2022-10-13T00:45:26.458Z,14.38
2022-10-13T00:47:58.230Z,15.88
2022-10-13T00:50:36.074Z,15.00
2022-10-13T00:53:05.935Z,15.93
2022-10-13T00:55:35.082Z,16.20
2022-10-13T00:58:05.546Z,14.05
2022-10-13T01:00:33.498Z,14.18
2022-10-13T01:03:01.703Z,14.85
2022-10-13T01:05:29.038Z,14.07
2022-10-13T01:07:56.219Z,14.13
2022-10-13T01:10:29.526Z,14.07
2022-10-13T01:13:04.123Z,14.45
2022-10-13T01:15:40.789Z,14.18
2022-10-13T01:18:10.599Z,14.88
2022-10-13T01:20:49.357Z,14.57
2022-10-13T01:23:31.799Z,15.07
2022-10-13T01:26:18.589Z,14.23
2022-10-13T01:29:02.466Z,15.70
2022-10-13T01:31:29.752Z,15.27
2022-10-13T01:34:17.711Z,15.10
2022-10-13T01:36:55.100Z,15.10
2022-10-13T01:39:52.978Z,14.82
2022-10-13T01:42:24.881Z,14.45
2022-10-13T01:44:53.573Z,14.13
2022-10-13T01:47:20.770Z,14.40
2022-10-13T01:49:50.907Z,13.55
2022-10-13T01:52:19.146Z,14.93
2022-10-13T01:54:51.247Z,13.73
2022-10-13T01:57:35.521Z,14.55
2022-10-13T02:00:12.971Z,14.67
2022-10-13T02:02:48.491Z,14.35
2022-10-13T02:05:37.939Z,14.50
2022-10-13T02:08:10.745Z,14.30
2022-10-13T02:10:45.036Z,14.02
2022-10-13T02:13:13.134Z,14.07
2022-10-13T02:15:41.936Z,14.35
2022-10-13T02:18:09.894Z,13.90
2022-10-13T02:20:37.117Z,14.27
2022-10-13T02:23:09.352Z,14.23
2022-10-13T02:25:36.798Z,12.87
2022-10-13T02:28:04.194Z,13.50
2022-10-13T02:30:35.689Z,14.05
2022-10-13T02:33:03.277Z,13.13
2022-10-13T02:35:31.161Z,14.77
2022-10-13T02:38:02.596Z,13.73
2022-10-13T02:40:30.069Z,13.90
2022-10-13T02:42:57.309Z,14.10
2022-10-13T02:45:24.629Z,13.88
2022-10-13T02:47:56.118Z,14.57
2022-10-13T02:50:23.378Z,13.23
2022-10-13T02:52:50.960Z,13.30
2022-10-13T02:55:18.297Z,13.88
2022-10-13T02:57:46.419Z,12.95
2022-10-13T03:00:14.436Z,13.20
2022-10-13T03:02:42.310Z,12.33
2022-10-13T03:05:09.828Z,12.48
2022-10-13T03:07:37.091Z,13.63
2022-10-13T03:10:05.206Z,13.32
2022-10-13T03:12:32.449Z,15.23
2022-10-13T03:14:59.731Z,14.07
2022-10-13T03:17:27.483Z,15.25
2022-10-13T03:19:54.782Z,14.15
2022-10-13T03:22:22.363Z,14.75
2022-10-13T03:24:52.571Z,15.77
2022-10-13T03:27:19.893Z,14.67
2022-10-13T03:29:47.106Z,14.88
2022-10-13T03:32:14.590Z,14.75
2022-10-13T03:34:41.784Z,14.40
2022-10-13T03:37:09.226Z,14.85
2022-10-13T03:39:42.227Z,13.63
2022-10-13T03:42:10.986Z,14.55
2022-10-13T03:44:39.739Z,13.52
2022-10-13T03:47:07.088Z,13.70
2022-10-13T03:49:34.545Z,14.05
2022-10-13T03:52:01.991Z,13.87
2022-10-13T03:54:29.244Z,13.02
2022-10-13T03:56:57.768Z,15.40
2022-10-13T03:59:24.999Z,14.88
2022-10-13T04:01:52.381Z,14.70
2022-10-13T04:04:19.639Z,13.90
2022-10-13T04:06:47.630Z,15.27
2022-10-13T04:09:14.843Z,19.10
2022-10-13T04:11:42.149Z,19.88
2022-10-13T04:14:09.394Z,19.75
2022-10-13T04:16:36.676Z,17.10
2022-10-13T04:19:05.466Z,17.25
2022-10-13T04:21:36.223Z,16.00
2022-10-13T04:24:03.849Z,15.40
2022-10-13T04:26:32.687Z,16.17
2022-10-13T04:29:07.604Z,15.27
2022-10-13T04:31:35.276Z,16.02
2022-10-13T04:34:02.562Z,15.35
2022-10-13T04:36:30.084Z,17.00
2022-10-13T04:38:57.432Z,17.42
2022-10-13T04:41:25.923Z,17.97
2022-10-13T04:43:53.541Z,17.00
2022-10-13T04:46:23.480Z,17.85
2022-10-13T04:48:51.791Z,19.75
2022-10-13T04:51:23.576Z,19.15
2022-10-13T04:53:55.866Z,18.87
2022-10-13T04:56:23.465Z,19.20
2022-10-13T04:58:50.993Z,18.40
2022-10-13T05:01:22.193Z,18.65
2022-10-13T05:03:57.690Z,18.42
2022-10-13T05:06:26.550Z,18.73
2022-10-13T05:08:56.384Z,18.67
2022-10-13T05:11:24.486Z,19.88
2022-10-13T05:13:52.330Z,20.55
2022-10-13T05:16:21.176Z,19.00
2022-10-13T05:18:49.372Z,19.23
2022-10-13T05:21:21.249Z,19.30
2022-10-13T05:23:49.201Z,21.17
2022-10-13T05:26:20.634Z,20.52
2022-10-13T05:28:50.131Z,19.90
2022-10-13T05:31:22.664Z,20.83
2022-10-13T05:33:54.205Z,19.42
2022-10-13T05:36:26.845Z,21.67
2022-10-13T05:38:55.713Z,20.33
2022-10-13T05:41:23.747Z,21.10
2022-10-13T05:44:02.361Z,22.43
2022-10-13T05:46:29.845Z,22.63
2022-10-13T05:48:58.055Z,23.40
2022-10-13T05:51:28.845Z,24.17
2022-10-13T05:54:22.085Z,25.58
2022-10-13T05:57:00.860Z,25.47
2022-10-13T05:59:30.734Z,27.80
2022-10-13T06:01:58.847Z,29.25
2022-10-13T06:04:31.082Z,25.67
2022-10-13T06:06:59.193Z,24.63
2022-10-13T06:09:29.278Z,23.50
2022-10-13T06:11:57.182Z,22.52
2022-10-13T06:14:24.660Z,21.63
2022-10-13T06:16:54.851Z,21.77
2022-10-13T06:19:22.861Z,23.48
2022-10-13T06:21:50.430Z,23.43
2022-10-13T06:24:18.724Z,20.60
2022-10-13T06:26:46.877Z,22.77
2022-10-13T06:29:14.470Z,21.52
2022-10-13T06:31:41.924Z,21.52
2022-10-13T06:34:10.519Z,19.97
2022-10-13T06:36:38.741Z,21.10
2022-10-13T06:39:05.987Z,20.38
2022-10-13T06:41:33.713Z,22.15
2022-10-13T06:44:04.213Z,21.63
2022-10-13T06:46:32.195Z,21.23
2022-10-13T06:48:59.814Z,19.05
2022-10-13T06:51:27.674Z,18.58
2022-10-13T06:53:58.261Z,19.00
2022-10-13T06:56:28.023Z,19.55
2022-10-13T06:58:59.346Z,17.83
2022-10-13T07:01:27.177Z,17.95
2022-10-13T07:03:55.628Z,17.83
2022-10-13T07:06:35.562Z,17.70
2022-10-13T07:09:08.459Z,17.73
2022-10-13T07:11:37.142Z,17.00
2022-10-13T07:14:05.261Z,17.27
2022-10-13T07:16:33.059Z,17.20
2022-10-13T07:19:03.159Z,15.77
2022-10-13T07:21:30.819Z,15.88
2022-10-13T07:23:58.472Z,14.03
2022-10-13T07:26:28.605Z,13.65
2022-10-13T07:28:56.405Z,13.38
2022-10-13T07:31:24.685Z,14.20
2022-10-13T07:33:53.025Z,14.77
2022-10-13T07:36:27.792Z,13.87
2022-10-13T07:38:55.974Z,13.10
2022-10-13T07:41:23.681Z,14.90
2022-10-13T07:43:58.216Z,12.38
2022-10-13T07:46:26.171Z,14.23
2022-10-13T07:48:54.394Z,14.00
2022-10-13T07:51:22.054Z,14.75
2022-10-13T07:53:49.505Z,14.05
2022-10-13T07:56:17.104Z,13.82
2022-10-13T07:58:46.130Z,13.50
2022-10-13T08:01:14.578Z,14.03
2022-10-13T08:03:45.563Z,13.32
2022-10-13T08:06:18.997Z,13.60
2022-10-13T08:08:46.379Z,14.52
2022-10-13T08:11:17.503Z,14.27
2022-10-13T08:13:50.366Z,15.10
2022-10-13T08:16:26.936Z,15.77
2022-10-13T08:18:55.023Z,14.98
2022-10-13T08:24:15.523Z,15.55
2022-10-13T08:26:43.327Z,15.65
2022-10-13T08:29:26.327Z,16.40
2022-10-13T08:31:54.397Z,15.45
2022-10-13T08:34:25.147Z,16.52
2022-10-13T08:36:54.638Z,17.10
2022-10-13T08:39:23.084Z,17.00
2022-10-13T08:41:50.676Z,16.23
2022-10-13T08:45:15.697Z,16.40
2022-10-13T08:47:48.465Z,15.65
2022-10-13T08:50:22.466Z,15.38
2022-10-13T08:52:54.545Z,15.70
2022-10-13T08:55:44.490Z,15.23
2022-10-13T08:58:29.473Z,17.23
2022-10-13T09:01:09.752Z,17.25
2022-10-13T09:04:08.733Z,16.63
2022-10-13T09:06:49.282Z,15.63
2022-10-13T09:09:18.142Z,15.87
2022-10-13T09:11:52.161Z,15.15
2022-10-13T09:14:31.530Z,14.88
2022-10-13T09:17:22.452Z,14.00
2022-10-13T09:20:21.156Z,13.90
2022-10-13T09:23:12.541Z,13.17
2022-10-13T09:25:42.063Z,12.75
2022-10-13T09:28:14.892Z,12.07
2022-10-13T09:30:44.415Z,12.30
2022-10-13T09:33:12.281Z,11.57
2022-10-13T09:35:40.473Z,12.10
2022-10-13T09:38:21.721Z,12.23
2022-10-13T09:41:04.853Z,11.07
2022-10-13T09:43:33.900Z,11.02
2022-10-13T09:46:02.319Z,11.13
2022-10-13T09:48:31.707Z,10.47
2022-10-13T09:51:00.099Z,9.98
2022-10-13T09:53:40.870Z,10.82
2022-10-13T09:56:19.909Z,9.50
2022-10-13T09:59:02.288Z,8.90
2022-10-13T10:01:34.222Z,9.40
2022-10-13T10:04:04.959Z,9.17
2022-10-13T10:06:33.389Z,9.70
2022-10-13T10:09:44.208Z,9.60
2022-10-13T10:12:30.365Z,9.35
2022-10-13T10:14:58.226Z,9.77
2022-10-13T10:17:28.696Z,10.07
2022-10-13T10:20:01.012Z,9.88
2022-10-13T10:22:42.875Z,10.93
2022-10-13T10:25:30.346Z,10.82
2022-10-13T10:28:09.922Z,10.45
2022-10-13T10:30:41.739Z,9.80
2022-10-13T10:33:14.785Z,11.25
2022-10-13T10:35:53.231Z,10.88
2022-10-13T10:39:00.295Z,10.55
2022-10-13T10:41:43.366Z,10.10
2022-10-13T10:44:13.359Z,10.68
2022-10-13T10:46:51.874Z,10.93
2022-10-13T10:49:33.076Z,9.10
2022-10-13T10:52:01.748Z,9.07
2022-10-13T10:54:35.426Z,11.20
2022-10-13T10:57:36.729Z,9.55
2022-10-13T11:00:21.329Z,10.83
2022-10-13T11:03:12.147Z,9.68
2022-10-13T11:06:25.149Z,9.90
2022-10-13T11:08:55.783Z,10.23
2022-10-13T11:11:25.101Z,9.65
2022-10-13T11:14:01.215Z,9.13
2022-10-13T11:16:39.562Z,10.07
2022-10-13T11:19:32.778Z,10.70
2022-10-13T11:22:00.447Z,11.48
2022-10-13T11:24:39.818Z,9.68
2022-10-13T11:27:16.468Z,11.32
2022-10-13T11:29:47.184Z,9.73
2022-10-13T11:32:35.845Z,11.60
2022-10-13T11:35:06.864Z,12.10
2022-10-13T11:38:08.767Z,12.07
2022-10-13T11:41:10.928Z,10.88
2022-10-13T11:43:46.807Z,11.43
2022-10-13T11:46:29.206Z,10.65
2022-10-13T11:49:03.046Z,10.13
2022-10-13T11:51:41.790Z,11.38
2022-10-13T11:54:13.712Z,10.82
2022-10-13T11:56:55.792Z,11.63
2022-10-13T11:59:34.155Z,11.95
2022-10-13T12:02:10.937Z,11.55
2022-10-13T12:04:42.787Z,11.50
2022-10-13T12:07:15.266Z,10.70
2022-10-13T12:09:53.381Z,10.53
2022-10-13T12:12:23.513Z,10.52
2022-10-13T12:14:55.262Z,11.20
2022-10-13T12:17:26.887Z,10.55
2022-10-13T12:19:56.240Z,10.75
2022-10-13T12:22:24.212Z,10.53
2022-10-13T12:24:58.842Z,9.88
2022-10-13T12:27:27.844Z,10.07
2022-10-13T12:29:55.824Z,10.55
2022-10-13T12:32:28.903Z,11.25
2022-10-13T12:34:56.928Z,11.13
2022-10-13T12:37:33.654Z,10.40
2022-10-13T12:40:01.414Z,9.93
2022-10-13T12:42:30.761Z,10.45
2022-10-13T12:44:58.736Z,9.38
2022-10-13T12:47:58.591Z,9.90
2022-10-13T12:50:27.639Z,8.70
2022-10-13T12:52:54.880Z,9.95
2022-10-13T12:55:22.751Z,9.40
2022-10-13T12:57:50.586Z,9.45
2022-10-13T13:00:21.357Z,8.77
2022-10-13T13:02:59.609Z,8.87
2022-10-13T13:05:33.771Z,9.32
2022-10-13T13:08:05.148Z,9.00
2022-10-13T13:10:32.623Z,8.90
2022-10-13T13:13:13.904Z,9.15
2022-10-13T13:15:41.896Z,8.53
2022-10-13T13:18:41.719Z,8.90
2022-10-13T13:21:11.299Z,9.02
2022-10-13T13:23:42.841Z,8.55
2022-10-13T13:26:15.672Z,9.38
2022-10-13T13:28:48.018Z,8.60
2022-10-13T13:31:17.056Z,7.82
2022-10-13T13:33:44.666Z,8.80
2022-10-13T13:36:19.171Z,8.35
2022-10-13T13:38:48.186Z,8.95
2022-10-13T13:41:15.771Z,8.17
2022-10-13T13:43:43.369Z,8.43
2022-10-13T13:46:17.082Z,8.40
2022-10-13T13:48:44.555Z,8.93
2022-10-13T13:51:11.842Z,8.40
2022-10-13T13:53:39.552Z,8.10
2022-10-13T13:56:15.217Z,7.82
2022-10-13T13:58:43.264Z,7.90
2022-10-13T14:01:11.163Z,8.73
2022-10-13T14:03:38.970Z,9.05
2022-10-13T14:06:08.410Z,8.73
2022-10-13T14:08:42.427Z,8.90
2022-10-13T14:11:10.566Z,7.72
2022-10-13T14:13:37.813Z,8.00
2022-10-13T14:16:05.461Z,8.18
2022-10-13T14:18:32.757Z,8.33
2022-10-13T14:21:00.093Z,8.27
2022-10-13T14:23:27.565Z,8.32
2022-10-13T14:25:54.907Z,8.15
2022-10-13T14:28:22.969Z,8.60
2022-10-13T14:30:50.429Z,8.07
2022-10-13T14:33:19.830Z,9.70
2022-10-13T14:35:47.304Z,9.52
2022-10-13T14:38:16.943Z,9.70
2022-10-13T14:40:44.873Z,9.18
2022-10-13T14:43:12.282Z,8.67
2022-10-13T14:45:39.884Z,10.20
2022-10-13T14:48:11.895Z,9.13
2022-10-13T14:50:39.218Z,8.52
2022-10-13T14:53:06.595Z,8.65
2022-10-13T14:55:33.977Z,8.77
2022-10-13T14:58:01.372Z,10.00
2022-10-13T15:00:28.948Z,8.75
2022-10-13T15:02:56.204Z,8.45
2022-10-13T15:05:26.114Z,9.05
2022-10-13T15:07:53.569Z,8.87
2022-10-13T15:10:20.794Z,8.57
2022-10-13T15:12:48.194Z,9.40
2022-10-13T15:15:15.473Z,9.13
2022-10-13T15:17:42.833Z,8.95
2022-10-13T15:20:10.616Z,9.20
2022-10-13T15:22:38.387Z,8.88
2022-10-13T15:25:10.556Z,9.75
2022-10-13T15:27:42.007Z,9.27
2022-10-13T15:30:10.060Z,9.30
2022-10-13T15:32:37.568Z,8.97
2022-10-13T15:35:06.478Z,9.20
2022-10-13T15:37:34.416Z,9.93
2022-10-13T15:40:01.821Z,9.38
2022-10-13T15:42:29.207Z,9.32
2022-10-13T15:45:09.324Z,9.97
2022-10-13T15:47:37.224Z,9.80
2022-10-13T15:50:04.926Z,9.05
2022-10-13T15:52:35.084Z,10.05
2022-10-13T15:55:02.560Z,10.30
2022-10-13T15:57:31.097Z,9.93
2022-10-13T15:59:58.478Z,10.25
2022-10-13T16:02:25.862Z,9.60
2022-10-13T16:04:53.431Z,10.02
2022-10-13T16:07:20.751Z,11.13
2022-10-13T16:09:48.233Z,11.70
2022-10-13T16:12:15.597Z,11.30
2022-10-13T16:14:43.289Z,11.25
2022-10-13T16:17:11.828Z,14.25
2022-10-13T16:19:39.828Z,15.35
2022-10-13T16:22:08.201Z,15.27
2022-10-13T16:24:37.622Z,13.60
2022-10-13T16:27:06.683Z,13.88
2022-10-13T16:29:34.424Z,12.65
2022-10-13T16:32:02.136Z,12.63
2022-10-13T16:34:29.552Z,14.20
2022-10-13T16:36:56.875Z,19.67
2022-10-13T16:39:24.936Z,20.90
2022-10-13T16:41:52.344Z,19.85
2022-10-13T16:44:23.029Z,15.20
2022-10-13T16:46:52.447Z,16.57
2022-10-13T16:49:19.782Z,14.50
2022-10-13T16:51:47.095Z,15.90
2022-10-13T16:54:14.418Z,15.88
2022-10-13T16:56:41.946Z,16.52
2022-10-13T16:59:10.161Z,14.33
2022-10-13T17:01:37.826Z,15.25
2022-10-13T17:04:05.255Z,14.80
2022-10-13T17:06:32.730Z,15.90
2022-10-13T17:09:00.546Z,16.77
2022-10-13T17:11:30.060Z,15.67
2022-10-13T17:13:57.987Z,16.92
2022-10-13T17:16:25.473Z,16.05
2022-10-13T17:18:53.337Z,15.65
2022-10-13T17:21:22.288Z,15.25
2022-10-13T17:23:49.770Z,14.80
2022-10-13T17:26:17.816Z,16.45
2022-10-13T17:28:45.339Z,15.48
2022-10-13T17:31:14.822Z,15.38
2022-10-13T17:33:42.353Z,17.45
2022-10-13T17:36:17.698Z,16.07
2022-10-13T17:38:45.253Z,16.83
2022-10-13T17:41:12.705Z,16.55
2022-10-13T17:43:49.864Z,16.50
2022-10-13T17:46:35.582Z,17.38
2022-10-13T17:49:03.941Z,19.17
2022-10-13T17:51:31.210Z,20.60
2022-10-13T17:53:59.000Z,18.85
2022-10-13T17:56:26.473Z,18.92
2022-10-13T17:58:54.080Z,21.65
2022-10-13T18:01:32.428Z,21.03
2022-10-13T18:04:08.856Z,18.40
2022-10-13T18:06:40.084Z,17.55
2022-10-13T18:09:08.938Z,18.90
2022-10-13T18:11:36.342Z,18.73
2022-10-13T18:14:03.874Z,18.13
2022-10-13T18:16:31.189Z,19.63
2022-10-13T18:18:58.626Z,19.58
2022-10-13T18:21:29.394Z,19.52
2022-10-13T18:23:58.026Z,19.45
2022-10-13T18:26:25.686Z,20.30
2022-10-13T18:28:53.167Z,19.48
2022-10-13T18:31:23.321Z,21.13
2022-10-13T18:33:58.710Z,22.83
2022-10-13T18:36:31.014Z,22.25
2022-10-13T18:39:05.479Z,20.67
2022-10-13T18:41:32.872Z,20.73
2022-10-13T18:44:00.505Z,21.42
2022-10-13T18:46:27.927Z,21.92
2022-10-13T18:48:55.371Z,20.70
2022-10-13T18:51:22.664Z,22.73
2022-10-13T18:53:52.884Z,22.88
2022-10-13T18:56:26.256Z,23.75
2022-10-13T18:58:59.290Z,23.50
2022-10-13T19:01:28.723Z,23.70
2022-10-13T19:03:56.067Z,22.20
2022-10-13T19:06:27.720Z,21.58
2022-10-13T19:09:00.851Z,20.15
2022-10-13T19:11:28.488Z,20.35
2022-10-13T19:13:55.777Z,18.77
2022-10-13T19:16:23.867Z,19.07
2022-10-13T19:18:51.197Z,19.10
2022-10-13T19:21:19.127Z,18.65
2022-10-13T19:23:46.574Z,19.95
2022-10-13T19:26:21.160Z,19.73
2022-10-13T19:28:48.481Z,19.40
2022-10-13T19:31:20.664Z,19.23
2022-10-13T19:33:50.420Z,19.95
2022-10-13T19:36:27.921Z,19.23
2022-10-13T19:38:57.343Z,20.75
2022-10-13T19:41:24.924Z,19.67
2022-10-13T19:43:52.188Z,19.58
2022-10-13T19:46:21.699Z,20.70
2022-10-13T19:48:49.056Z,20.63
2022-10-13T19:51:16.326Z,20.48
2022-10-13T19:53:43.757Z,20.33
2022-10-13T19:56:23.310Z,21.13
2022-10-13T19:58:51.316Z,21.38
2022-10-13T20:01:20.019Z,21.65
2022-10-13T20:03:47.506Z,21.52
2022-10-13T20:06:14.886Z,22.60
2022-10-13T20:08:42.451Z,21.33
2022-10-13T20:11:10.610Z,22.00
2022-10-13T20:13:38.037Z,22.23
2022-10-13T20:16:10.111Z,21.90
2022-10-13T20:18:37.767Z,21.67
2022-10-13T20:21:05.731Z,24.25
2022-10-13T20:23:33.184Z,25.20
2022-10-13T20:26:11.212Z,26.55
2022-10-13T20:28:43.179Z,27.52
2022-10-13T20:31:12.928Z,26.30
2022-10-13T20:33:40.394Z,27.63
2022-10-13T20:36:12.399Z,26.33
2022-10-13T20:38:39.854Z,26.13
2022-10-13T20:41:08.839Z,24.90
2022-10-13T20:43:37.058Z,25.40
2022-10-13T20:46:06.214Z,26.55
2022-10-13T20:48:51.475Z,25.67
2022-10-13T20:51:22.809Z,22.52
2022-10-13T20:53:50.034Z,22.10
2022-10-13T20:56:22.113Z,23.83
2022-10-13T20:58:49.674Z,24.25
2022-10-13T21:01:17.676Z,24.20
2022-10-13T21:03:45.203Z,22.77
2022-10-13T21:06:13.529Z,21.88
2022-10-13T21:08:40.964Z,19.17
2022-10-13T21:11:10.119Z,20.40
2022-10-13T21:13:38.399Z,19.08
2022-10-13T21:16:08.432Z,19.33
2022-10-13T21:18:35.846Z,19.60
2022-10-13T21:21:07.966Z,18.43
2022-10-13T21:23:35.495Z,17.50
2022-10-13T21:26:03.868Z,18.27
2022-10-13T21:28:31.532Z,18.48
2022-10-13T21:31:11.545Z,17.77
2022-10-13T21:33:39.185Z,19.27
2022-10-13T21:36:13.760Z,19.08
2022-10-13T21:38:41.662Z,18.08
2022-10-13T21:41:10.254Z,17.52
2022-10-13T21:43:37.637Z,17.75
2022-10-13T21:46:18.179Z,17.87
2022-10-13T21:48:45.981Z,16.75
2022-10-13T21:51:21.389Z,17.95
2022-10-13T21:53:52.831Z,17.52
2022-10-13T21:56:20.357Z,18.13
2022-10-13T21:58:49.062Z,17.33
2022-10-13T22:01:17.116Z,18.85
2022-10-13T22:03:44.472Z,18.85
2022-10-13T22:06:17.637Z,20.23
2022-10-13T22:08:47.012Z,19.65
2022-10-13T22:11:24.680Z,17.90
2022-10-13T22:13:52.111Z,19.00
2022-10-13T22:16:23.936Z,19.60
2022-10-13T22:18:52.307Z,19.50
2022-10-13T22:21:25.052Z,19.10
2022-10-13T22:23:55.185Z,17.77
2022-10-13T22:26:22.496Z,18.35
2022-10-13T22:28:51.765Z,17.65
2022-10-13T22:31:19.318Z,17.85
2022-10-13T22:33:46.545Z,18.92
2022-10-13T22:36:18.255Z,18.33
2022-10-13T22:38:46.008Z,19.77
2022-10-13T22:41:14.707Z,19.83
2022-10-13T22:43:44.231Z,19.42
2022-10-13T22:46:15.607Z,19.83
2022-10-13T22:48:43.172Z,19.30
2022-10-13T22:51:14.191Z,18.52
2022-10-13T22:53:41.705Z,17.83
2022-10-13T22:56:09.827Z,19.33
2022-10-13T22:58:37.375Z,19.38
2022-10-13T23:01:14.849Z,18.67
2022-10-13T23:03:42.314Z,17.95
2022-10-13T23:06:13.162Z,20.25
2022-10-13T23:08:40.951Z,18.23
2022-10-13T23:11:08.229Z,18.58
2022-10-13T23:13:35.738Z,20.07
2022-10-13T23:16:03.606Z,18.90
2022-10-13T23:18:35.073Z,17.65
2022-10-13T23:21:10.439Z,18.15
2022-10-13T23:23:37.885Z,18.60
2022-10-13T23:26:06.279Z,18.13
2022-10-13T23:28:33.870Z,17.73
2022-10-13T23:31:11.558Z,16.98
2022-10-13T23:33:38.876Z,17.00
2022-10-13T23:36:06.845Z,17.23
2022-10-13T23:38:34.275Z,17.43
2022-10-13T23:41:12.111Z,17.50
2022-10-13T23:43:40.878Z,16.45
2022-10-13T23:46:08.160Z,16.85
2022-10-13T23:48:35.519Z,17.00
2022-10-13T23:51:07.784Z,16.50
2022-10-13T23:53:36.372Z,16.08
2022-10-13T23:56:04.688Z,15.73
2022-10-13T23:58:32.284Z,15.43
